createdAt,value
2019-05-02T00:07:08.375Z,99.9
2019-05-02T00:17:11.822Z,99.9
2019-05-02T00:27:15.263Z,98.5
2019-05-02T00:37:26.271Z,99.9
2019-05-02T00:47:30.234Z,99.9
2019-05-02T00:57:33.657Z,99.9
2019-05-02T01:07:37.106Z,99.9
2019-05-02T01:17:40.546Z,99.9
2019-05-02T01:27:43.979Z,99.9
2019-05-02T01:37:54.794Z,99.9
2019-05-02T01:47:59.563Z,99.9
2019-05-02T01:58:03.018Z,99.9
2019-05-02T02:08:06.508Z,99.9
2019-05-02T02:18:10.974Z,99.9
2019-05-02T02:28:14.432Z,99.9
2019-05-02T02:38:17.871Z,99.9
2019-05-02T02:48:21.384Z,99.9
2019-05-02T02:58:24.833Z,99.9
2019-05-02T03:08:28.271Z,99.9
2019-05-02T03:18:43.110Z,99.9
2019-05-02T03:29:00.313Z,99.9
2019-05-02T03:39:16.931Z,99.9
2019-05-02T03:49:21.018Z,99.9
2019-05-02T03:59:39.222Z,99.9
2019-05-02T04:09:45.394Z,99.9
2019-05-02T04:19:48.850Z,99.9
2019-05-02T04:29:52.284Z,99.9
2019-05-02T04:40:03.312Z,99.9
2019-05-02T04:50:24.937Z,99.9
2019-05-02T05:00:32.869Z,99.9
2019-05-02T05:10:44.967Z,99.9
2019-05-02T05:20:54.389Z,99.9
2019-05-02T05:30:58.479Z,99.9
2019-05-02T05:41:08.767Z,99.9
2019-05-02T05:51:24.414Z,99.9
2019-05-02T06:01:35.891Z,99.9
2019-05-02T06:11:41.885Z,99.9
2019-05-02T06:21:46.914Z,99.9
2019-05-02T06:31:50.378Z,99.9
2019-05-02T06:41:58.761Z,99.9
2019-05-02T06:52:02.233Z,99.9
2019-05-02T07:02:05.658Z,99.9
2019-05-02T07:12:14.661Z,99.9
2019-05-02T07:22:20.067Z,99.9
2019-05-02T07:32:26.760Z,99.9
2019-05-02T07:42:30.233Z,99.9
2019-05-02T07:52:35.009Z,99.7
2019-05-02T08:02:38.414Z,98.4
2019-05-02T08:12:41.865Z,95.7
2019-05-02T08:22:50.401Z,94.6
2019-05-02T08:32:54.349Z,95.6
2019-05-02T08:42:57.772Z,98.1
2019-05-02T08:53:01.202Z,96.1
2019-05-02T09:03:04.939Z,95.8
2019-05-02T09:13:08.387Z,93
2019-05-02T09:23:12.584Z,88.5
2019-05-02T09:33:16.023Z,93.1
2019-05-02T09:43:19.449Z,87.2
2019-05-02T09:53:25.812Z,90.3
2019-05-02T10:03:29.251Z,83.3
2019-05-02T10:13:33.106Z,91.1
2019-05-02T10:23:36.575Z,79.1
2019-05-02T10:33:42.151Z,78.8
2019-05-02T10:43:51.870Z,78.8
2019-05-02T10:54:02.970Z,82
2019-05-02T11:04:06.430Z,65.6
2019-05-02T11:14:12.129Z,64.5
2019-05-02T11:24:15.585Z,60.6
2019-05-02T11:34:19.160Z,61.4
2019-05-02T11:44:22.824Z,62.5
2019-05-02T11:54:27.964Z,64.6
2019-05-02T12:04:32.743Z,60.6
2019-05-02T12:14:36.769Z,64.7
2019-05-02T12:24:45.257Z,55.1
2019-05-02T12:34:48.969Z,49.5
2019-05-02T12:44:53.467Z,46.3
2019-05-02T12:54:56.929Z,46.5
2019-05-02T13:05:02.599Z,49.7
2019-05-02T13:15:06.079Z,52.6
2019-05-02T13:25:12.795Z,62.9
2019-05-02T13:35:16.437Z,72
2019-05-02T13:45:21.850Z,84.8
2019-05-02T13:55:25.312Z,90.6
2019-05-02T14:05:28.755Z,91.6
2019-05-02T14:15:32.644Z,97
2019-05-02T14:25:36.109Z,93.8
2019-05-02T14:35:39.562Z,99.7
2019-05-02T14:45:44.151Z,97.2
2019-05-02T14:55:47.567Z,95.8
2019-05-02T15:05:52.840Z,93.2
2019-05-02T15:15:56.257Z,90.2
2019-05-02T15:25:59.741Z,92
2019-05-02T15:36:07.727Z,91.7
2019-05-02T15:46:26.585Z,94.1
2019-05-02T15:56:35.445Z,88
2019-05-02T16:06:39.941Z,94.8
2019-05-02T16:16:45.566Z,92
2019-05-02T16:26:49.012Z,93.6
2019-05-02T16:36:52.474Z,95.1
2019-05-02T16:46:55.921Z,95
2019-05-02T16:56:59.324Z,94.8
2019-05-02T17:07:06.015Z,96
2019-05-02T17:17:09.438Z,95.9
2019-05-02T17:27:24.137Z,96
2019-05-02T17:37:28.154Z,96.4
2019-05-02T17:47:37.678Z,96.3
2019-05-02T17:57:42.142Z,97
2019-05-02T18:07:45.598Z,97.4
2019-05-02T18:17:49.040Z,98
2019-05-02T18:27:52.506Z,97.4
2019-05-02T18:37:55.938Z,99.6
2019-05-02T18:48:06.585Z,99.9
2019-05-02T18:58:12.563Z,99.9
2019-05-02T19:08:32.031Z,99.9
2019-05-02T19:18:57.565Z,99.9
2019-05-02T19:29:02.685Z,99.9
2019-05-02T19:39:10.057Z,99.9
2019-05-02T19:49:16.450Z,99.9
2019-05-02T19:59:26.420Z,99.9
2019-05-02T20:09:33.135Z,99.9
2019-05-02T20:19:36.536Z,99.9
2019-05-02T20:29:39.950Z,99.9
2019-05-02T20:39:43.367Z,99.9
2019-05-02T20:49:46.792Z,99.9
2019-05-02T20:59:52.770Z,99.9
2019-05-02T21:09:56.265Z,99.9
2019-05-02T21:20:02.111Z,99.9
2019-05-02T21:30:05.569Z,99.9
2019-05-02T21:40:09.013Z,99.9
2019-05-02T21:50:12.532Z,99.9
2019-05-02T22:00:15.952Z,99.9
2019-05-02T22:10:19.416Z,99.9
2019-05-02T22:20:23.119Z,99.9
2019-05-02T22:30:26.576Z,99.9
2019-05-02T22:40:30.022Z,99.9
2019-05-02T22:50:35.641Z,99.9
2019-05-02T23:00:39.076Z,99.9
2019-05-02T23:10:42.481Z,99.9
2019-05-02T23:20:45.917Z,99.9
2019-05-02T23:30:49.386Z,99.9
2019-05-02T23:40:52.830Z,99.9
2019-05-02T23:50:56.267Z,99.9
